sensor_id;sensor_type;location;lat;lon;timestamp;P1;durP1;ratioP1;P2;durP2;ratioP2
20954;SDS011;10636;19.390;-99.256;2022-07-23T00:00:56;4.35;;;3.95;;
20954;SDS011;10636;19.390;-99.256;2022-07-23T00:03:25;4.80;;;4.30;;
20954;SDS011;10636;19.390;-99.256;2022-07-23T00:05:55;4.40;;;4.00;;
20954;SDS011;10636;19.390;-99.256;2022-07-23T00:08:23;4.05;;;3.75;;
20954;SDS011;10636;19.390;-99.256;2022-07-23T00:10:52;4.00;;;3.70;;
20954;SDS011;10636;19.390;-99.256;2022-07-23T00:13:20;4.10;;;3.80;;
20954;SDS011;10636;19.390;-99.256;2022-07-23T00:15:49;4.25;;;3.85;;
20954;SDS011;10636;19.390;-99.256;2022-07-23T00:18:17;4.43;;;4.03;;
20954;SDS011;10636;19.390;-99.256;2022-07-23T00:20:45;4.57;;;4.18;;
20954;SDS011;10636;19.390;-99.256;2022-07-23T00:23:15;4.30;;;3.92;;
20954;SDS011;10636;19.390;-99.256;2022-07-23T00:25:44;4.47;;;4.07;;
20954;SDS011;10636;19.390;-99.256;2022-07-23T00:28:13;4.43;;;4.03;;
20954;SDS011;10636;19.390;-99.256;2022-07-23T00:30:41;5.03;;;4.20;;
20954;SDS011;10636;19.390;-99.256;2022-07-23T00:33:10;5.25;;;4.30;;
20954;SDS011;10636;19.390;-99.256;2022-07-23T00:35:39;4.70;;;4.30;;
20954;SDS011;10636;19.390;-99.256;2022-07-23T00:38:09;4.63;;;4.22;;
20954;SDS011;10636;19.390;-99.256;2022-07-23T00:40:39;4.18;;;3.78;;
20954;SDS011;10636;19.390;-99.256;2022-07-23T00:43:08;5.85;;;3.90;;
20954;SDS011;10636;19.390;-99.256;2022-07-23T00:45:36;4.53;;;4.13;;
20954;SDS011;10636;19.390;-99.256;2022-07-23T00:48:05;4.53;;;4.13;;
20954;SDS011;10636;19.390;-99.256;2022-07-23T00:50:34;4.75;;;4.32;;
20954;SDS011;10636;19.390;-99.256;2022-07-23T00:53:03;4.82;;;4.13;;
20954;SDS011;10636;19.390;-99.256;2022-07-23T00:55:34;4.97;;;3.92;;
20954;SDS011;10636;19.390;-99.256;2022-07-23T00:58:04;4.60;;;4.20;;
20954;SDS011;10636;19.390;-99.256;2022-07-23T01:00:33;4.47;;;4.03;;
20954;SDS011;10636;19.390;-99.256;2022-07-23T01:03:01;4.13;;;3.75;;
20954;SDS011;10636;19.390;-99.256;2022-07-23T01:05:30;4.50;;;4.10;;
20954;SDS011;10636;19.390;-99.256;2022-07-23T01:07:58;4.28;;;3.95;;
20954;SDS011;10636;19.390;-99.256;2022-07-23T01:10:27;4.45;;;4.05;;
20954;SDS011;10636;19.390;-99.256;2022-07-23T01:12:59;4.65;;;4.05;;
20954;SDS011;10636;19.390;-99.256;2022-07-23T01:15:31;5.13;;;4.38;;
20954;SDS011;10636;19.390;-99.256;2022-07-23T01:18:01;4.32;;;4.03;;
20954;SDS011;10636;19.390;-99.256;2022-07-23T01:20:30;4.80;;;4.30;;
20954;SDS011;10636;19.390;-99.256;2022-07-23T01:23:01;4.53;;;4.10;;
20954;SDS011;10636;19.390;-99.256;2022-07-23T01:25:29;4.20;;;3.80;;
20954;SDS011;10636;19.390;-99.256;2022-07-23T01:27:58;4.07;;;3.78;;
20954;SDS011;10636;19.390;-99.256;2022-07-23T01:30:26;4.63;;;4.22;;
20954;SDS011;10636;19.390;-99.256;2022-07-23T01:32:55;4.50;;;4.10;;
20954;SDS011;10636;19.390;-99.256;2022-07-23T01:35:23;4.30;;;3.92;;
20954;SDS011;10636;19.390;-99.256;2022-07-23T01:37:52;4.32;;;3.97;;
20954;SDS011;10636;19.390;-99.256;2022-07-23T01:40:22;4.68;;;4.18;;
20954;SDS011;10636;19.390;-99.256;2022-07-23T01:42:50;4.93;;;4.30;;
20954;SDS011;10636;19.390;-99.256;2022-07-23T01:45:18;5.25;;;4.07;;
20954;SDS011;10636;19.390;-99.256;2022-07-23T01:47:47;5.13;;;3.72;;
20954;SDS011;10636;19.390;-99.256;2022-07-23T01:50:17;4.35;;;3.95;;
20954;SDS011;10636;19.390;-99.256;2022-07-23T01:52:45;4.72;;;3.95;;
20954;SDS011;10636;19.390;-99.256;2022-07-23T01:55:14;3.90;;;3.60;;
20954;SDS011;10636;19.390;-99.256;2022-07-23T01:57:44;4.45;;;4.05;;
20954;SDS011;10636;19.390;-99.256;2022-07-23T02:00:13;4.40;;;4.00;;
20954;SDS011;10636;19.390;-99.256;2022-07-23T02:02:42;4.72;;;3.92;;
20954;SDS011;10636;19.390;-99.256;2022-07-23T02:05:10;4.57;;;3.92;;
20954;SDS011;10636;19.390;-99.256;2022-07-23T02:07:39;4.38;;;3.97;;
20954;SDS011;10636;19.390;-99.256;2022-07-23T02:10:08;4.35;;;3.95;;
20954;SDS011;10636;19.390;-99.256;2022-07-23T02:12:36;4.10;;;3.70;;
20954;SDS011;10636;19.390;-99.256;2022-07-23T02:15:07;4.18;;;3.88;;
20954;SDS011;10636;19.390;-99.256;2022-07-23T02:17:36;4.07;;;3.78;;
20954;SDS011;10636;19.390;-99.256;2022-07-23T02:20:05;4.10;;;3.80;;
20954;SDS011;10636;19.390;-99.256;2022-07-23T02:22:34;4.18;;;3.78;;
20954;SDS011;10636;19.390;-99.256;2022-07-23T02:25:03;3.97;;;3.45;;
20954;SDS011;10636;19.390;-99.256;2022-07-23T02:27:32;4.03;;;3.63;;
20954;SDS011;10636;19.390;-99.256;2022-07-23T02:30:03;3.83;;;3.50;;
20954;SDS011;10636;19.390;-99.256;2022-07-23T02:32:33;4.15;;;3.83;;
20954;SDS011;10636;19.390;-99.256;2022-07-23T02:35:02;4.20;;;3.80;;
20954;SDS011;10636;19.390;-99.256;2022-07-23T02:37:31;4.30;;;3.90;;
20954;SDS011;10636;19.390;-99.256;2022-07-23T02:40:00;4.50;;;3.95;;
20954;SDS011;10636;19.390;-99.256;2022-07-23T02:42:28;4.32;;;3.92;;
20954;SDS011;10636;19.390;-99.256;2022-07-23T02:44:57;3.90;;;3.60;;
20954;SDS011;10636;19.390;-99.256;2022-07-23T02:47:25;3.88;;;3.58;;
20954;SDS011;10636;19.390;-99.256;2022-07-23T02:49:55;4.28;;;3.95;;
20954;SDS011;10636;19.390;-99.256;2022-07-23T02:52:24;4.20;;;3.80;;
20954;SDS011;10636;19.390;-99.256;2022-07-23T02:54:52;4.43;;;3.63;;
20954;SDS011;10636;19.390;-99.256;2022-07-23T02:57:21;4.28;;;3.88;;
20954;SDS011;10636;19.390;-99.256;2022-07-23T02:59:49;4.63;;;3.80;;
20954;SDS011;10636;19.390;-99.256;2022-07-23T03:02:17;4.30;;;3.90;;
20954;SDS011;10636;19.390;-99.256;2022-07-23T03:04:46;4.40;;;4.00;;
20954;SDS011;10636;19.390;-99.256;2022-07-23T03:07:17;3.88;;;3.58;;
20954;SDS011;10636;19.390;-99.256;2022-07-23T03:09:45;4.13;;;3.70;;
20954;SDS011;10636;19.390;-99.256;2022-07-23T03:12:14;4.53;;;3.47;;
20954;SDS011;10636;19.390;-99.256;2022-07-23T03:14:42;4.10;;;3.70;;
20954;SDS011;10636;19.390;-99.256;2022-07-23T03:17:11;4.20;;;3.80;;
20954;SDS011;10636;19.390;-99.256;2022-07-23T03:19:39;4.30;;;3.90;;
20954;SDS011;10636;19.390;-99.256;2022-07-23T03:22:08;4.10;;;3.70;;
20954;SDS011;10636;19.390;-99.256;2022-07-23T03:24:38;4.28;;;3.70;;
20954;SDS011;10636;19.390;-99.256;2022-07-23T03:27:22;4.00;;;3.60;;
20954;SDS011;10636;19.390;-99.256;2022-07-23T03:29:51;3.95;;;3.65;;
20954;SDS011;10636;19.390;-99.256;2022-07-23T03:32:19;4.22;;;3.65;;
20954;SDS011;10636;19.390;-99.256;2022-07-23T03:34:48;3.90;;;3.60;;
20954;SDS011;10636;19.390;-99.256;2022-07-23T03:37:20;4.18;;;3.53;;
20954;SDS011;10636;19.390;-99.256;2022-07-23T03:39:50;4.22;;;3.83;;
20954;SDS011;10636;19.390;-99.256;2022-07-23T03:42:18;3.53;;;3.22;;
20954;SDS011;10636;19.390;-99.256;2022-07-23T03:44:47;4.65;;;4.00;;
20954;SDS011;10636;19.390;-99.256;2022-07-23T03:47:18;4.18;;;3.72;;
20954;SDS011;10636;19.390;-99.256;2022-07-23T03:49:49;4.57;;;3.83;;
20954;SDS011;10636;19.390;-99.256;2022-07-23T03:52:18;4.13;;;3.75;;
20954;SDS011;10636;19.390;-99.256;2022-07-23T03:54:46;3.97;;;3.58;;
20954;SDS011;10636;19.390;-99.256;2022-07-23T03:57:16;5.13;;;3.70;;
20954;SDS011;10636;19.390;-99.256;2022-07-23T03:59:47;4.15;;;3.75;;
20954;SDS011;10636;19.390;-99.256;2022-07-23T04:02:16;4.03;;;3.63;;
20954;SDS011;10636;19.390;-99.256;2022-07-23T04:04:44;3.97;;;3.67;;
20954;SDS011;10636;19.390;-99.256;2022-07-23T04:07:13;4.03;;;3.72;;
20954;SDS011;10636;19.390;-99.256;2022-07-23T04:09:43;4.40;;;4.10;;
20954;SDS011;10636;19.390;-99.256;2022-07-23T04:12:11;4.40;;;3.60;;
20954;SDS011;10636;19.390;-99.256;2022-07-23T04:14:41;4.28;;;3.88;;
20954;SDS011;10636;19.390;-99.256;2022-07-23T04:17:10;4.20;;;3.90;;
20954;SDS011;10636;19.390;-99.256;2022-07-23T04:19:38;4.35;;;3.97;;
20954;SDS011;10636;19.390;-99.256;2022-07-23T04:22:08;4.00;;;3.63;;
20954;SDS011;10636;19.390;-99.256;2022-07-23T04:24:37;5.22;;;4.00;;
20954;SDS011;10636;19.390;-99.256;2022-07-23T04:27:06;4.03;;;3.72;;
20954;SDS011;10636;19.390;-99.256;2022-07-23T04:29:34;5.28;;;4.10;;
20954;SDS011;10636;19.390;-99.256;2022-07-23T04:32:05;5.03;;;4.05;;
20954;SDS011;10636;19.390;-99.256;2022-07-23T04:34:33;4.10;;;3.70;;
20954;SDS011;10636;19.390;-99.256;2022-07-23T04:37:01;4.30;;;3.90;;
20954;SDS011;10636;19.390;-99.256;2022-07-23T04:39:30;4.35;;;3.95;;
20954;SDS011;10636;19.390;-99.256;2022-07-23T04:41:58;4.38;;;3.97;;
20954;SDS011;10636;19.390;-99.256;2022-07-23T04:44:27;4.20;;;3.83;;
20954;SDS011;10636;19.390;-99.256;2022-07-23T04:46:55;4.15;;;3.78;;
20954;SDS011;10636;19.390;-99.256;2022-07-23T04:49:25;4.30;;;3.97;;
20954;SDS011;10636;19.390;-99.256;2022-07-23T04:51:54;4.60;;;4.10;;
20954;SDS011;10636;19.390;-99.256;2022-07-23T04:54:22;4.13;;;3.78;;
20954;SDS011;10636;19.390;-99.256;2022-07-23T04:56:50;4.18;;;3.78;;
20954;SDS011;10636;19.390;-99.256;2022-07-23T04:59:19;4.88;;;3.90;;
20954;SDS011;10636;19.390;-99.256;2022-07-23T05:01:47;4.20;;;3.70;;
20954;SDS011;10636;19.390;-99.256;2022-07-23T05:04:16;4.22;;;3.92;;
20954;SDS011;10636;19.390;-99.256;2022-07-23T05:06:46;4.40;;;4.00;;
20954;SDS011;10636;19.390;-99.256;2022-07-23T05:09:14;4.15;;;3.85;;
20954;SDS011;10636;19.390;-99.256;2022-07-23T05:11:42;4.82;;;3.85;;
20954;SDS011;10636;19.390;-99.256;2022-07-23T05:14:11;4.10;;;3.70;;
20954;SDS011;10636;19.390;-99.256;2022-07-23T05:16:39;4.00;;;3.70;;
20954;SDS011;10636;19.390;-99.256;2022-07-23T05:19:08;4.70;;;4.10;;
20954;SDS011;10636;19.390;-99.256;2022-07-23T05:21:36;4.47;;;3.95;;
20954;SDS011;10636;19.390;-99.256;2022-07-23T05:24:07;4.68;;;3.90;;
20954;SDS011;10636;19.390;-99.256;2022-07-23T05:26:35;4.47;;;4.07;;
20954;SDS011;10636;19.390;-99.256;2022-07-23T05:29:04;4.07;;;3.70;;
20954;SDS011;10636;19.390;-99.256;2022-07-23T05:31:32;4.35;;;3.85;;
20954;SDS011;10636;19.390;-99.256;2022-07-23T05:34:00;4.30;;;3.90;;
20954;SDS011;10636;19.390;-99.256;2022-07-23T05:36:30;4.15;;;3.53;;
20954;SDS011;10636;19.390;-99.256;2022-07-23T05:38:59;4.20;;;3.72;;
20954;SDS011;10636;19.390;-99.256;2022-07-23T05:41:29;3.97;;;3.67;;
20954;SDS011;10636;19.390;-99.256;2022-07-23T05:43:57;4.40;;;4.00;;
20954;SDS011;10636;19.390;-99.256;2022-07-23T05:46:26;4.10;;;3.70;;
20954;SDS011;10636;19.390;-99.256;2022-07-23T05:48:54;4.18;;;3.78;;
20954;SDS011;10636;19.390;-99.256;2022-07-23T05:51:23;4.30;;;3.95;;
20954;SDS011;10636;19.390;-99.256;2022-07-23T05:53:52;3.97;;;3.63;;
20954;SDS011;10636;19.390;-99.256;2022-07-23T05:56:20;4.28;;;3.92;;
20954;SDS011;10636;19.390;-99.256;2022-07-23T05:58:50;4.00;;;3.60;;
20954;SDS011;10636;19.390;-99.256;2022-07-23T06:01:19;3.92;;;3.63;;
20954;SDS011;10636;19.390;-99.256;2022-07-23T06:03:47;4.25;;;3.83;;
20954;SDS011;10636;19.390;-99.256;2022-07-23T06:06:15;4.22;;;3.70;;
20954;SDS011;10636;19.390;-99.256;2022-07-23T06:08:44;4.00;;;3.70;;
20954;SDS011;10636;19.390;-99.256;2022-07-23T06:11:12;4.50;;;4.10;;
20954;SDS011;10636;19.390;-99.256;2022-07-23T06:13:41;4.70;;;3.88;;
20954;SDS011;10636;19.390;-99.256;2022-07-23T06:16:11;4.20;;;3.80;;
20954;SDS011;10636;19.390;-99.256;2022-07-23T06:18:39;4.18;;;3.88;;
20954;SDS011;10636;19.390;-99.256;2022-07-23T06:21:07;3.78;;;3.47;;
20954;SDS011;10636;19.390;-99.256;2022-07-23T06:23:36;3.95;;;3.65;;
20954;SDS011;10636;19.390;-99.256;2022-07-23T06:26:04;4.43;;;4.03;;
20954;SDS011;10636;19.390;-99.256;2022-07-23T06:28:33;4.10;;;3.70;;
20954;SDS011;10636;19.390;-99.256;2022-07-23T06:31:01;4.38;;;3.65;;
20954;SDS011;10636;19.390;-99.256;2022-07-23T06:33:31;3.92;;;3.53;;
20954;SDS011;10636;19.390;-99.256;2022-07-23T06:36:00;3.95;;;3.63;;
20954;SDS011;10636;19.390;-99.256;2022-07-23T06:38:28;4.22;;;3.58;;
20954;SDS011;10636;19.390;-99.256;2022-07-23T06:40:57;4.20;;;3.80;;
20954;SDS011;10636;19.390;-99.256;2022-07-23T06:43:25;4.38;;;3.97;;
20954;SDS011;10636;19.390;-99.256;2022-07-23T06:45:53;4.55;;;3.72;;
20954;SDS011;10636;19.390;-99.256;2022-07-23T06:48:22;4.32;;;3.92;;
20954;SDS011;10636;19.390;-99.256;2022-07-23T06:50:52;4.53;;;4.10;;
20954;SDS011;10636;19.390;-99.256;2022-07-23T06:53:20;4.38;;;3.97;;
20954;SDS011;10636;19.390;-99.256;2022-07-23T06:55:49;3.97;;;3.67;;
20954;SDS011;10636;19.390;-99.256;2022-07-23T06:58:17;4.35;;;3.78;;
20954;SDS011;10636;19.390;-99.256;2022-07-23T07:00:46;4.20;;;3.90;;
20954;SDS011;10636;19.390;-99.256;2022-07-23T07:03:16;4.35;;;4.05;;
20954;SDS011;10636;19.390;-99.256;2022-07-23T07:05:45;4.05;;;3.65;;
20954;SDS011;10636;19.390;-99.256;2022-07-23T07:08:15;4.28;;;3.72;;
20954;SDS011;10636;19.390;-99.256;2022-07-23T07:10:43;3.72;;;3.42;;
20954;SDS011;10636;19.390;-99.256;2022-07-23T07:13:12;4.18;;;3.63;;
20954;SDS011;10636;19.390;-99.256;2022-07-23T07:15:41;4.50;;;4.10;;
20954;SDS011;10636;19.390;-99.256;2022-07-23T07:18:09;4.10;;;3.70;;
20954;SDS011;10636;19.390;-99.256;2022-07-23T07:20:37;4.30;;;3.92;;
20954;SDS011;10636;19.390;-99.256;2022-07-23T07:23:06;4.28;;;3.88;;
20954;SDS011;10636;19.390;-99.256;2022-07-23T07:25:36;4.22;;;3.78;;
20954;SDS011;10636;19.390;-99.256;2022-07-23T07:28:04;4.35;;;3.97;;
20954;SDS011;10636;19.390;-99.256;2022-07-23T07:30:33;4.45;;;4.05;;
20954;SDS011;10636;19.390;-99.256;2022-07-23T07:33:01;3.80;;;3.50;;
20954;SDS011;10636;19.390;-99.256;2022-07-23T07:35:29;4.40;;;4.03;;
20954;SDS011;10636;19.390;-99.256;2022-07-23T07:37:58;4.03;;;3.72;;
20954;SDS011;10636;19.390;-99.256;2022-07-23T07:40:26;4.18;;;3.88;;
20954;SDS011;10636;19.390;-99.256;2022-07-23T07:42:56;4.50;;;4.13;;
20954;SDS011;10636;19.390;-99.256;2022-07-23T07:45:25;4.88;;;3.70;;
20954;SDS011;10636;19.390;-99.256;2022-07-23T07:47:53;4.28;;;3.85;;
20954;SDS011;10636;19.390;-99.256;2022-07-23T07:50:22;4.85;;;4.05;;
20954;SDS011;10636;19.390;-99.256;2022-07-23T07:52:50;4.22;;;3.92;;
20954;SDS011;10636;19.390;-99.256;2022-07-23T07:55:19;4.40;;;4.00;;
20954;SDS011;10636;19.390;-99.256;2022-07-23T07:57:47;5.13;;;4.07;;
20954;SDS011;10636;19.390;-99.256;2022-07-23T08:00:17;4.20;;;3.80;;
20954;SDS011;10636;19.390;-99.256;2022-07-23T08:02:46;4.40;;;4.00;;
20954;SDS011;10636;19.390;-99.256;2022-07-23T08:05:18;4.50;;;4.10;;
20954;SDS011;10636;19.390;-99.256;2022-07-23T08:07:48;4.40;;;4.07;;
20954;SDS011;10636;19.390;-99.256;2022-07-23T08:10:16;4.95;;;4.55;;
20954;SDS011;10636;19.390;-99.256;2022-07-23T08:12:45;4.30;;;3.95;;
20954;SDS011;10636;19.390;-99.256;2022-07-23T08:15:18;4.70;;;4.30;;
20954;SDS011;10636;19.390;-99.256;2022-07-23T08:17:50;4.85;;;4.20;;
20954;SDS011;10636;19.390;-99.256;2022-07-23T08:20:19;4.82;;;4.22;;
20954;SDS011;10636;19.390;-99.256;2022-07-23T08:22:49;4.45;;;4.15;;
20954;SDS011;10636;19.390;-99.256;2022-07-23T08:25:20;4.65;;;4.25;;
20954;SDS011;10636;19.390;-99.256;2022-07-23T08:27:50;4.60;;;3.97;;
20954;SDS011;10636;19.390;-99.256;2022-07-23T08:30:20;4.35;;;3.80;;
20954;SDS011;10636;19.390;-99.256;2022-07-23T08:32:53;4.55;;;4.18;;
20954;SDS011;10636;19.390;-99.256;2022-07-23T08:35:24;4.60;;;4.25;;
20954;SDS011;10636;19.390;-99.256;2022-07-23T08:37:54;4.47;;;4.18;;
20954;SDS011;10636;19.390;-99.256;2022-07-23T08:40:23;5.18;;;4.78;;
20954;SDS011;10636;19.390;-99.256;2022-07-23T08:42:54;5.00;;;4.60;;
20954;SDS011;10636;19.390;-99.256;2022-07-23T08:45:25;4.20;;;3.80;;
20954;SDS011;10636;19.390;-99.256;2022-07-23T08:47:55;4.43;;;4.03;;
20954;SDS011;10636;19.390;-99.256;2022-07-23T08:50:25;5.05;;;4.30;;
20954;SDS011;10636;19.390;-99.256;2022-07-23T08:52:53;4.45;;;4.05;;
20954;SDS011;10636;19.390;-99.256;2022-07-23T08:55:24;4.55;;;3.80;;
20954;SDS011;10636;19.390;-99.256;2022-07-23T08:57:52;4.72;;;4.32;;
20954;SDS011;10636;19.390;-99.256;2022-07-23T09:00:21;4.10;;;3.80;;
20954;SDS011;10636;19.390;-99.256;2022-07-23T09:02:51;5.03;;;4.70;;
20954;SDS011;10636;19.390;-99.256;2022-07-23T09:05:20;4.97;;;4.57;;
20954;SDS011;10636;19.390;-99.256;2022-07-23T09:10:46;5.05;;;3.78;;
20954;SDS011;10636;19.390;-99.256;2022-07-23T09:13:27;4.43;;;4.10;;
20954;SDS011;10636;19.390;-99.256;2022-07-23T09:15:58;4.40;;;4.00;;
20954;SDS011;10636;19.390;-99.256;2022-07-23T09:18:32;4.40;;;4.00;;
20954;SDS011;10636;19.390;-99.256;2022-07-23T09:21:07;4.50;;;4.10;;
20954;SDS011;10636;19.390;-99.256;2022-07-23T09:23:41;4.32;;;3.92;;
20954;SDS011;10636;19.390;-99.256;2022-07-23T09:26:23;4.90;;;4.40;;
20954;SDS011;10636;19.390;-99.256;2022-07-23T09:28:56;4.82;;;4.43;;
20954;SDS011;10636;19.390;-99.256;2022-07-23T09:31:33;4.82;;;4.47;;
20954;SDS011;10636;19.390;-99.256;2022-07-23T09:34:12;5.25;;;4.85;;
20954;SDS011;10636;19.390;-99.256;2022-07-23T09:36:44;4.78;;;4.47;;
20954;SDS011;10636;19.390;-99.256;2022-07-23T09:39:13;5.18;;;4.80;;
20954;SDS011;10636;19.390;-99.256;2022-07-23T09:41:43;5.10;;;4.70;;
20954;SDS011;10636;19.390;-99.256;2022-07-23T09:44:13;5.68;;;5.18;;
20954;SDS011;10636;19.390;-99.256;2022-07-23T09:46:43;4.88;;;4.43;;
20954;SDS011;10636;19.390;-99.256;2022-07-23T09:49:15;4.40;;;4.10;;
20954;SDS011;10636;19.390;-99.256;2022-07-23T09:51:46;5.38;;;4.97;;
20954;SDS011;10636;19.390;-99.256;2022-07-23T09:54:20;5.57;;;5.10;;
20954;SDS011;10636;19.390;-99.256;2022-07-23T09:56:51;5.25;;;4.85;;
20954;SDS011;10636;19.390;-99.256;2022-07-23T09:59:23;5.15;;;4.85;;
20954;SDS011;10636;19.390;-99.256;2022-07-23T10:01:53;5.72;;;5.05;;
20954;SDS011;10636;19.390;-99.256;2022-07-23T10:04:26;5.32;;;4.82;;
20954;SDS011;10636;19.390;-99.256;2022-07-23T10:06:56;5.03;;;4.53;;
20954;SDS011;10636;19.390;-99.256;2022-07-23T10:09:27;5.28;;;4.88;;
20954;SDS011;10636;19.390;-99.256;2022-07-23T10:11:57;5.00;;;4.70;;
20954;SDS011;10636;19.390;-99.256;2022-07-23T10:14:38;5.32;;;4.93;;
20954;SDS011;10636;19.390;-99.256;2022-07-23T10:17:07;5.63;;;5.10;;
20954;SDS011;10636;19.390;-99.256;2022-07-23T10:19:37;5.55;;;5.15;;
20954;SDS011;10636;19.390;-99.256;2022-07-23T10:22:07;5.57;;;5.18;;
20954;SDS011;10636;19.390;-99.256;2022-07-23T10:24:50;5.35;;;4.95;;
20954;SDS011;10636;19.390;-99.256;2022-07-23T10:30:25;5.78;;;5.28;;
20954;SDS011;10636;19.390;-99.256;2022-07-23T10:33:09;5.03;;;4.63;;
20954;SDS011;10636;19.390;-99.256;2022-07-23T10:35:49;4.60;;;4.20;;
20954;SDS011;10636;19.390;-99.256;2022-07-23T10:38:21;5.15;;;4.20;;
20954;SDS011;10636;19.390;-99.256;2022-07-23T10:40:55;4.80;;;4.35;;
20954;SDS011;10636;19.390;-99.256;2022-07-23T10:43:26;4.93;;;4.40;;
20954;SDS011;10636;19.390;-99.256;2022-07-23T10:45:55;4.15;;;3.80;;
20954;SDS011;10636;19.390;-99.256;2022-07-23T10:48:44;4.82;;;4.43;;
20954;SDS011;10636;19.390;-99.256;2022-07-23T10:51:14;4.68;;;4.20;;
20954;SDS011;10636;19.390;-99.256;2022-07-23T10:53:55;4.82;;;4.32;;
20954;SDS011;10636;19.390;-99.256;2022-07-23T10:59:43;4.95;;;4.55;;
20954;SDS011;10636;19.390;-99.256;2022-07-23T11:02:47;5.15;;;4.68;;
20954;SDS011;10636;19.390;-99.256;2022-07-23T11:05:18;5.40;;;4.82;;
20954;SDS011;10636;19.390;-99.256;2022-07-23T11:10:43;5.47;;;5.00;;
20954;SDS011;10636;19.390;-99.256;2022-07-23T11:13:26;5.78;;;5.28;;
20954;SDS011;10636;19.390;-99.256;2022-07-23T11:16:05;6.10;;;5.60;;
20954;SDS011;10636;19.390;-99.256;2022-07-23T11:21:43;6.18;;;5.78;;
20954;SDS011;10636;19.390;-99.256;2022-07-23T11:24:15;5.85;;;5.45;;
20954;SDS011;10636;19.390;-99.256;2022-07-23T11:26:45;6.28;;;5.88;;
20954;SDS011;10636;19.390;-99.256;2022-07-23T11:29:38;6.90;;;6.40;;
20954;SDS011;10636;19.390;-99.256;2022-07-23T11:32:09;4.93;;;4.53;;
20954;SDS011;10636;19.390;-99.256;2022-07-23T11:35:18;5.00;;;4.60;;
20954;SDS011;10636;19.390;-99.256;2022-07-23T11:37:51;4.90;;;4.50;;
20954;SDS011;10636;19.390;-99.256;2022-07-23T11:40:26;5.28;;;4.78;;
20954;SDS011;10636;19.390;-99.256;2022-07-23T11:42:56;6.28;;;5.82;;
20954;SDS011;10636;19.390;-99.256;2022-07-23T11:45:30;6.28;;;5.88;;
20954;SDS011;10636;19.390;-99.256;2022-07-23T11:48:00;6.65;;;6.05;;
20954;SDS011;10636;19.390;-99.256;2022-07-23T11:50:29;7.00;;;6.40;;
20954;SDS011;10636;19.390;-99.256;2022-07-23T11:52:58;6.55;;;6.10;;
20954;SDS011;10636;19.390;-99.256;2022-07-23T11:55:29;6.93;;;6.43;;
20954;SDS011;10636;19.390;-99.256;2022-07-23T11:57:57;4.82;;;4.43;;
20954;SDS011;10636;19.390;-99.256;2022-07-23T12:00:26;4.90;;;4.50;;
20954;SDS011;10636;19.390;-99.256;2022-07-23T12:02:57;5.63;;;4.75;;
20954;SDS011;10636;19.390;-99.256;2022-07-23T12:05:27;4.97;;;4.57;;
20954;SDS011;10636;19.390;-99.256;2022-07-23T12:07:57;4.97;;;4.47;;
20954;SDS011;10636;19.390;-99.256;2022-07-23T12:10:26;5.10;;;4.60;;
20954;SDS011;10636;19.390;-99.256;2022-07-23T12:13:01;4.80;;;4.40;;
20954;SDS011;10636;19.390;-99.256;2022-07-23T12:15:31;5.07;;;4.68;;
20954;SDS011;10636;19.390;-99.256;2022-07-23T12:18:03;5.78;;;5.38;;
20954;SDS011;10636;19.390;-99.256;2022-07-23T12:20:33;7.07;;;6.57;;
20954;SDS011;10636;19.390;-99.256;2022-07-23T12:23:04;5.32;;;4.82;;
20954;SDS011;10636;19.390;-99.256;2022-07-23T12:25:35;5.20;;;4.80;;
20954;SDS011;10636;19.390;-99.256;2022-07-23T12:28:07;5.43;;;4.90;;
20954;SDS011;10636;19.390;-99.256;2022-07-23T12:30:38;6.20;;;5.70;;
20954;SDS011;10636;19.390;-99.256;2022-07-23T12:33:08;6.45;;;6.03;;
20954;SDS011;10636;19.390;-99.256;2022-07-23T12:35:38;7.30;;;6.70;;
20954;SDS011;10636;19.390;-99.256;2022-07-23T12:38:08;7.70;;;7.10;;
20954;SDS011;10636;19.390;-99.256;2022-07-23T12:40:43;7.07;;;6.57;;
20954;SDS011;10636;19.390;-99.256;2022-07-23T12:43:18;7.63;;;7.13;;
20954;SDS011;10636;19.390;-99.256;2022-07-23T12:45:48;7.75;;;7.15;;
20954;SDS011;10636;19.390;-99.256;2022-07-23T12:48:21;9.05;;;8.50;;
20954;SDS011;10636;19.390;-99.256;2022-07-23T12:50:54;8.45;;;7.85;;
20954;SDS011;10636;19.390;-99.256;2022-07-23T12:53:25;5.07;;;4.68;;
20954;SDS011;10636;19.390;-99.256;2022-07-23T12:56:04;5.38;;;4.88;;
20954;SDS011;10636;19.390;-99.256;2022-07-23T12:58:44;5.22;;;4.72;;
20954;SDS011;10636;19.390;-99.256;2022-07-23T13:04:02;7.25;;;6.57;;
20954;SDS011;10636;19.390;-99.256;2022-07-23T13:06:32;7.85;;;7.25;;
20954;SDS011;10636;19.390;-99.256;2022-07-23T13:09:02;8.18;;;7.57;;
20954;SDS011;10636;19.390;-99.256;2022-07-23T13:11:33;7.85;;;7.35;;
20954;SDS011;10636;19.390;-99.256;2022-07-23T13:14:03;5.00;;;4.60;;
20954;SDS011;10636;19.390;-99.256;2022-07-23T13:16:32;5.55;;;5.07;;
20954;SDS011;10636;19.390;-99.256;2022-07-23T13:19:00;5.38;;;4.80;;
20954;SDS011;10636;19.390;-99.256;2022-07-23T13:21:29;5.68;;;5.05;;
20954;SDS011;10636;19.390;-99.256;2022-07-23T13:23:58;6.72;;;6.22;;
20954;SDS011;10636;19.390;-99.256;2022-07-23T13:26:26;8.95;;;8.35;;
20954;SDS011;10636;19.390;-99.256;2022-07-23T13:28:56;5.13;;;4.63;;
20954;SDS011;10636;19.390;-99.256;2022-07-23T13:31:25;8.43;;;7.88;;
20954;SDS011;10636;19.390;-99.256;2022-07-23T13:33:53;8.57;;;8.00;;
20954;SDS011;10636;19.390;-99.256;2022-07-23T13:36:21;10.68;;;9.88;;
20954;SDS011;10636;19.390;-99.256;2022-07-23T13:38:50;5.72;;;4.97;;
20954;SDS011;10636;19.390;-99.256;2022-07-23T13:41:18;5.18;;;4.68;;
20954;SDS011;10636;19.390;-99.256;2022-07-23T13:43:47;6.35;;;5.38;;
20954;SDS011;10636;19.390;-99.256;2022-07-23T13:46:18;8.52;;;8.02;;
20954;SDS011;10636;19.390;-99.256;2022-07-23T13:48:46;5.00;;;4.60;;
20954;SDS011;10636;19.390;-99.256;2022-07-23T13:51:15;9.70;;;9.10;;
20954;SDS011;10636;19.390;-99.256;2022-07-23T13:53:43;10.18;;;9.57;;
20954;SDS011;10636;19.390;-99.256;2022-07-23T13:56:13;5.03;;;4.57;;
20954;SDS011;10636;19.390;-99.256;2022-07-23T13:58:41;5.30;;;4.80;;
20954;SDS011;10636;19.390;-99.256;2022-07-23T14:01:10;5.70;;;5.20;;
20954;SDS011;10636;19.390;-99.256;2022-07-23T14:03:40;9.27;;;8.77;;
20954;SDS011;10636;19.390;-99.256;2022-07-23T14:06:08;4.90;;;4.50;;
20954;SDS011;10636;19.390;-99.256;2022-07-23T14:08:36;5.20;;;4.80;;
20954;SDS011;10636;19.390;-99.256;2022-07-23T14:11:05;6.18;;;5.35;;
20954;SDS011;10636;19.390;-99.256;2022-07-23T14:13:33;5.40;;;4.90;;
20954;SDS011;10636;19.390;-99.256;2022-07-23T14:16:02;5.70;;;5.20;;
20954;SDS011;10636;19.390;-99.256;2022-07-23T14:18:30;5.40;;;4.90;;
20954;SDS011;10636;19.390;-99.256;2022-07-23T14:21:00;5.80;;;5.30;;
20954;SDS011;10636;19.390;-99.256;2022-07-23T14:23:29;6.68;;;5.63;;
20954;SDS011;10636;19.390;-99.256;2022-07-23T14:25:57;9.05;;;8.45;;
20954;SDS011;10636;19.390;-99.256;2022-07-23T14:28:26;9.82;;;9.15;;
20954;SDS011;10636;19.390;-99.256;2022-07-23T14:30:54;10.88;;;10.18;;
20954;SDS011;10636;19.390;-99.256;2022-07-23T14:33:23;6.00;;;5.18;;
20954;SDS011;10636;19.390;-99.256;2022-07-23T14:35:51;5.97;;;5.38;;
20954;SDS011;10636;19.390;-99.256;2022-07-23T14:38:21;5.70;;;5.15;;
20954;SDS011;10636;19.390;-99.256;2022-07-23T14:40:49;9.70;;;9.02;;
20954;SDS011;10636;19.390;-99.256;2022-07-23T14:43:18;9.65;;;8.98;;
20954;SDS011;10636;19.390;-99.256;2022-07-23T14:45:46;9.50;;;8.90;;
20954;SDS011;10636;19.390;-99.256;2022-07-23T14:48:15;11.27;;;10.55;;
20954;SDS011;10636;19.390;-99.256;2022-07-23T14:50:43;10.98;;;10.38;;
20954;SDS011;10636;19.390;-99.256;2022-07-23T14:53:11;10.80;;;10.13;;
20954;SDS011;10636;19.390;-99.256;2022-07-23T14:55:41;5.20;;;4.80;;